Time;durP1;ratioP1;P1;durP2;ratioP2;P2;SDS_P1;SDS_P2;PMS_P1;PMS_P2;Temp;Humidity;BMP_temperature;BMP_pressure;BME280_temperature;BME280_humidity;BME280_pressure;Samples;Min_cycle;Max_cycle;Signal;HPM_P1;HPM_P2
2022/06/16 00:01:18;;;;;;;0.70;0.13;;;;;;;;;;4994533;28;20837;-70
2022/06/16 00:03:45;;;;;;;0.70;0.10;;;24.00;99.90;;;;;;4994803;28;20445;-70
2022/06/16 00:06:13;;;;;;;0.70;0.17;;;24.00;99.90;;;;;;5011987;28;20448;-70
2022/06/16 00:08:41;;;;;;;0.70;0.10;;;23.90;99.90;;;;;;5014504;28;20479;-70
2022/06/16 00:11:19;;;;;;;2.50;1.70;;;23.90;99.90;;;;;;4999853;28;20469;-69
2022/06/16 00:13:51;;;;;;;0.70;0.10;;;23.90;99.90;;;;;;4979873;28;20446;-70
2022/06/16 00:16:19;;;;;;;0.70;0.20;;;23.90;99.90;;;;;;4977953;28;20924;-71
2022/06/16 00:18:48;;;;;;;0.70;0.20;;;23.90;99.90;;;;;;4993350;28;20437;-69
2022/06/16 00:21:17;;;;;;;0.70;0.10;;;23.80;99.90;;;;;;4993674;28;20488;-70
2022/06/16 00:23:45;;;;;;;0.70;0.10;;;;;;;;;;5014107;28;20444;-70
2022/06/16 00:26:16;;;;;;;0.70;0.10;;;23.70;99.90;;;;;;5021176;28;20953;-70
2022/06/16 00:28:45;;;;;;;0.70;0.10;;;23.70;99.90;;;;;;5001056;28;20953;-69
2022/06/16 00:31:16;;;;;;;0.70;0.10;;;23.60;99.90;;;;;;5000031;28;21153;-69
2022/06/16 00:33:45;;;;;;;0.70;0.10;;;23.60;99.90;;;;;;5003129;28;20461;-69
2022/06/16 00:36:14;;;;;;;0.70;0.10;;;23.60;99.90;;;;;;5001568;28;20452;-70
2022/06/16 00:38:42;;;;;;;0.70;0.10;;;23.50;99.90;;;;;;5002235;28;20959;-69
2022/06/16 00:41:10;;;;;;;0.70;0.10;;;23.50;99.90;;;;;;4995435;28;20491;-70
2022/06/16 00:43:39;;;;;;;0.70;0.20;;;23.40;99.90;;;;;;4995605;28;21050;-70
2022/06/16 00:46:08;;;;;;;0.70;0.10;;;23.40;99.90;;;;;;4997076;28;20445;-70
2022/06/16 00:48:41;;;;;;;0.80;0.57;;;23.30;99.90;;;;;;4996343;28;20445;-70
2022/06/16 00:51:14;;;;;;;0.70;0.20;;;23.30;99.90;;;;;;4979987;28;20469;-70
2022/06/16 00:53:43;;;;;;;0.70;0.10;;;23.30;99.90;;;;;;4994957;28;20565;-70
2022/06/16 00:56:14;;;;;;;0.70;0.20;;;23.30;99.90;;;;;;5012056;28;20444;-70
2022/06/16 00:58:46;;;;;;;0.70;0.10;;;23.20;99.90;;;;;;5012925;28;20448;-70
2022/06/16 01:01:15;;;;;;;0.70;0.10;;;23.20;99.90;;;;;;5012736;28;20990;-70
2022/06/16 01:06:31;;;;;;;0.70;0.20;;;23.10;99.90;;;;;;5016858;28;20452;-70
2022/06/16 01:09:03;;;;;;;0.70;0.13;;;23.10;99.90;;;;;;4998398;28;20465;-69
2022/06/16 01:14:58;;;;;;;0.80;0.63;;;23.00;99.90;;;;;;4992156;28;20449;-70
2022/06/16 01:17:37;;;;;;;0.70;0.30;;;22.90;99.90;;;;;;4993287;28;20452;-70
2022/06/16 01:20:19;;;;;;;0.90;0.60;;;22.90;99.90;;;;;;4993558;28;20491;-72
2022/06/16 01:23:08;;;;;;;0.70;0.20;;;22.80;99.90;;;;;;5005484;28;20455;-70
2022/06/16 01:25:51;;;;;;;0.70;0.10;;;22.80;99.90;;;;;;5012207;28;20436;-70
2022/06/16 01:28:27;;;;;;;0.70;0.20;;;22.80;99.90;;;;;;4997365;28;20452;-70
2022/06/16 01:31:01;;;;;;;0.70;0.20;;;22.80;99.90;;;;;;4992705;28;20500;-69
2022/06/16 01:33:39;;;;;;;0.70;0.20;;;22.70;99.90;;;;;;4992783;28;20520;-69
2022/06/16 01:36:11;;;;;;;0.70;0.30;;;22.70;99.90;;;;;;4998887;28;20808;-70
2022/06/16 01:38:44;;;;;;;0.70;0.10;;;22.60;99.90;;;;;;5012421;28;20447;-70
2022/06/16 01:41:22;;;;;;;0.70;0.10;;;22.60;99.90;;;;;;5012525;28;20488;-70
2022/06/16 01:43:55;;;;;;;0.80;0.30;;;22.60;99.90;;;;;;5012848;28;20455;-69
2022/06/16 01:46:26;;;;;;;0.70;0.20;;;22.60;99.90;;;;;;5010298;28;20464;-69
2022/06/16 01:48:59;;;;;;;0.70;0.20;;;22.60;99.90;;;;;;5012504;28;20904;-70
2022/06/16 01:51:32;;;;;;;0.70;0.20;;;22.50;99.90;;;;;;5012050;28;20836;-69
2022/06/16 01:54:08;;;;;;;0.70;0.10;;;22.50;99.90;;;;;;5012065;28;20936;-70
2022/06/16 01:56:43;;;;;;;0.70;0.10;;;22.40;99.90;;;;;;5011597;28;20550;-70
2022/06/16 01:59:16;;;;;;;0.70;0.20;;;22.40;99.90;;;;;;5009827;28;20444;-71
2022/06/16 02:01:49;;;;;;;0.70;0.20;;;22.40;99.90;;;;;;5011720;28;21031;-70
2022/06/16 02:04:23;;;;;;;0.70;0.17;;;22.30;99.90;;;;;;5011475;28;20451;-70
2022/06/16 02:06:56;;;;;;;0.80;0.30;;;22.40;99.90;;;;;;5011519;28;20498;-70
2022/06/16 02:09:29;;;;;;;0.70;0.20;;;22.30;99.90;;;;;;5011969;28;20865;-70
2022/06/16 02:11:59;;;;;;;0.70;0.20;;;;;;;;;;5012037;28;20457;-70
2022/06/16 02:14:33;;;;;;;0.70;0.20;;;22.30;99.90;;;;;;4993042;28;20493;-70
2022/06/16 02:17:03;;;;;;;1.00;0.80;;;22.20;99.90;;;;;;4991892;28;20461;-70
2022/06/16 02:19:32;;;;;;;0.70;0.20;;;22.20;99.90;;;;;;4992086;28;20449;-70
2022/06/16 02:22:00;;;;;;;0.70;0.20;;;;;;;;;;4993533;28;20489;-69
2022/06/16 02:24:30;;;;;;;0.80;0.27;;;22.10;99.90;;;;;;5004692;28;20452;-69
2022/06/16 02:27:01;;;;;;;0.70;0.20;;;22.10;99.90;;;;;;5007847;28;20808;-69
2022/06/16 02:29:33;;;;;;;0.70;0.20;;;22.10;99.90;;;;;;4992552;28;20445;-70
2022/06/16 02:32:25;;;;;;;0.70;0.20;;;22.00;99.90;;;;;;4992607;28;20465;-70
2022/06/16 02:35:03;;;;;;;0.70;0.10;;;22.00;99.90;;;;;;4995658;28;20811;-70
2022/06/16 02:37:45;;;;;;;0.70;0.27;;;22.00;99.90;;;;;;5011566;28;20791;-69
2022/06/16 02:40:30;;;;;;;0.70;0.20;;;22.00;99.90;;;;;;5015376;28;20468;-69
2022/06/16 02:43:11;;;;;;;0.70;0.20;;;22.00;99.90;;;;;;5015028;28;20444;-69
2022/06/16 02:45:49;;;;;;;0.70;0.33;;;22.00;99.90;;;;;;5014976;28;20452;-70
2022/06/16 02:48:25;;;;;;;0.70;0.20;;;22.00;99.90;;;;;;5014711;28;20440;-70
2022/06/16 02:51:00;;;;;;;0.70;0.30;;;21.90;99.90;;;;;;4995298;28;20515;-70
2022/06/16 02:53:39;;;;;;;0.70;0.10;;;21.90;99.90;;;;;;4976568;28;20488;-71
2022/06/16 02:56:13;;;;;;;0.70;0.20;;;21.90;99.90;;;;;;4975560;28;20450;-70
2022/06/16 02:58:43;;;;;;;0.70;0.20;;;21.90;99.90;;;;;;4977063;28;20430;-69
2022/06/16 03:01:13;;;;;;;0.70;0.10;;;21.90;99.90;;;;;;4981416;28;20476;-70
2022/06/16 03:03:42;;;;;;;0.70;0.10;;;21.90;99.90;;;;;;5014926;28;21005;-70
2022/06/16 03:06:12;;;;;;;0.70;0.20;;;21.80;99.90;;;;;;5014442;28;20862;-70
2022/06/16 03:08:42;;;;;;;0.70;0.20;;;21.80;99.90;;;;;;5014697;28;20455;-70
2022/06/16 03:11:11;;;;;;;0.70;0.30;;;21.80;99.90;;;;;;5012721;28;20475;-70
2022/06/16 03:13:39;;;;;;;0.70;0.20;;;21.80;99.90;;;;;;4994864;28;20484;-70
2022/06/16 03:16:10;;;;;;;0.70;0.10;;;21.70;99.90;;;;;;4994389;28;20437;-70
2022/06/16 03:18:38;;;;;;;0.70;0.20;;;21.70;99.90;;;;;;4995132;28;20469;-70
2022/06/16 03:21:07;;;;;;;0.70;0.40;;;21.70;99.90;;;;;;4995835;28;20555;-70
2022/06/16 03:23:35;;;;;;;0.70;0.30;;;21.70;99.90;;;;;;5014700;28;20440;-70
2022/06/16 03:26:03;;;;;;;0.70;0.10;;;21.70;99.90;;;;;;5014353;28;20440;-69
2022/06/16 03:28:30;;;;;;;0.70;0.20;;;21.70;99.90;;;;;;4998221;28;20481;-70
2022/06/16 03:30:59;;;;;;;0.70;0.10;;;21.60;99.90;;;;;;4994954;28;20461;-70
2022/06/16 03:33:26;;;;;;;0.90;0.60;;;21.50;99.90;;;;;;4995304;28;20445;-70
2022/06/16 03:35:54;;;;;;;0.70;0.20;;;21.50;99.90;;;;;;4995116;28;20437;-70
2022/06/16 03:38:26;;;;;;;0.70;0.10;;;21.50;99.90;;;;;;4994731;28;20463;-69
2022/06/16 03:40:54;;;;;;;0.70;0.20;;;21.50;99.90;;;;;;4994661;28;20461;-69
2022/06/16 03:43:22;;;;;;;1.63;0.67;;;21.50;99.90;;;;;;5013578;28;20525;-69
2022/06/16 03:45:50;;;;;;;0.70;0.17;;;21.40;99.90;;;;;;5014179;28;20436;-70
2022/06/16 03:48:18;;;;;;;0.80;0.50;;;21.40;99.90;;;;;;5013597;28;20448;-69
2022/06/16 03:50:46;;;;;;;0.70;0.20;;;21.40;99.90;;;;;;5013890;28;20472;-70
2022/06/16 03:53:14;;;;;;;0.70;0.20;;;21.30;99.90;;;;;;4995843;28;20807;-70
2022/06/16 03:55:43;;;;;;;0.70;0.27;;;21.30;99.90;;;;;;4994346;28;20445;-70
2022/06/16 03:58:11;;;;;;;0.80;0.40;;;21.30;99.90;;;;;;4993814;28;20452;-69
2022/06/16 04:00:39;;;;;;;0.70;0.20;;;21.20;99.90;;;;;;4994318;28;20464;-69
2022/06/16 04:05:53;;;;;;;0.70;0.20;;;21.20;99.90;;;;;;5013966;28;20444;-69
2022/06/16 04:08:21;;;;;;;0.70;0.10;;;21.20;99.90;;;;;;5014006;28;20445;-70
2022/06/16 04:10:51;;;;;;;0.70;0.10;;;21.10;99.90;;;;;;5006130;28;20479;-70
2022/06/16 04:13:19;;;;;;;0.70;0.10;;;21.20;99.90;;;;;;4996404;28;20453;-69
2022/06/16 04:15:52;;;;;;;0.70;0.17;;;21.10;99.90;;;;;;4994305;28;20964;-69
2022/06/16 04:18:20;;;;;;;1.53;0.93;;;21.10;99.90;;;;;;4993432;28;20453;-71
2022/06/16 04:20:49;;;;;;;0.70;0.20;;;21.00;99.90;;;;;;4994301;28;20461;-69
2022/06/16 04:23:24;;;;;;;0.70;0.10;;;21.00;99.90;;;;;;5009860;28;20488;-70
2022/06/16 04:25:53;;;;;;;0.70;0.30;;;21.00;99.90;;;;;;5013061;28;20444;-70
2022/06/16 04:28:21;;;;;;;0.70;0.30;;;21.00;99.90;;;;;;4997866;28;20441;-69
2022/06/16 04:30:49;;;;;;;0.70;0.20;;;21.00;99.90;;;;;;4994175;28;20469;-69
2022/06/16 04:33:18;;;;;;;0.70;0.20;;;21.00;99.90;;;;;;5010694;28;20444;-69
2022/06/16 04:35:46;;;;;;;1.00;0.30;;;21.00;99.90;;;;;;4999831;28;20489;-69
2022/06/16 04:38:14;;;;;;;0.60;0.10;;;21.00;99.90;;;;;;4993087;28;20449;-70
2022/06/16 04:40:42;;;;;;;0.83;0.33;;;21.10;99.90;;;;;;4993573;28;20465;-69
2022/06/16 04:43:14;;;;;;;1.00;0.77;;;21.20;99.90;;;;;;5007230;28;20472;-69
2022/06/16 04:45:42;;;;;;;0.70;0.10;;;21.20;99.90;;;;;;5012835;28;20943;-69
2022/06/16 04:48:11;;;;;;;0.70;0.20;;;21.20;99.90;;;;;;5012558;28;20451;-70
2022/06/16 04:50:41;;;;;;;1.20;0.67;;;21.20;99.90;;;;;;5021322;23;20898;-71
2022/06/16 04:53:09;;;;;;;0.70;0.10;;;21.20;99.90;;;;;;5013884;28;20444;-71
2022/06/16 04:55:38;;;;;;;0.70;0.20;;;21.20;99.90;;;;;;5012542;28;20452;-72
2022/06/16 04:58:07;;;;;;;0.70;0.20;;;21.20;99.90;;;;;;5012680;28;20453;-73
2022/06/16 05:00:36;;;;;;;0.70;0.10;;;21.20;99.90;;;;;;5017648;28;20506;-71
2022/06/16 05:03:12;;;;;;;0.70;0.20;;;21.20;99.90;;;;;;4993573;28;20488;-71
2022/06/16 05:05:40;;;;;;;0.80;0.50;;;21.20;99.90;;;;;;4994074;28;20445;-71
2022/06/16 05:08:08;;;;;;;0.70;0.30;;;21.20;99.90;;;;;;4993618;28;20588;-72
2022/06/16 05:10:39;;;;;;;0.60;0.10;;;21.10;99.90;;;;;;4994456;28;20476;-71
2022/06/16 05:13:08;;;;;;;0.70;0.10;;;21.20;99.90;;;;;;5032397;28;20475;-71
2022/06/16 05:15:37;;;;;;;0.70;0.20;;;21.20;99.90;;;;;;5032715;28;20443;-72
2022/06/16 05:18:06;;;;;;;0.70;0.10;;;21.30;99.90;;;;;;5032170;28;20451;-72
2022/06/16 05:20:34;;;;;;;0.70;0.20;;;21.30;99.90;;;;;;5032422;28;20467;-72
2022/06/16 05:23:02;;;;;;;0.70;0.20;;;21.30;99.90;;;;;;5013864;28;20480;-72
2022/06/16 05:25:33;;;;;;;0.70;0.40;;;21.40;99.90;;;;;;5012608;28;20455;-70
2022/06/16 05:28:01;;;;;;;0.70;0.20;;;21.40;99.90;;;;;;5012251;28;20440;-72
2022/06/16 05:30:29;;;;;;;0.70;0.10;;;20.90;99.90;;;;;;5012890;28;20582;-71
2022/06/16 05:32:58;;;;;;;0.87;0.63;;;21.40;99.90;;;;;;5012419;28;20470;-71
2022/06/16 05:35:27;;;;;;;0.67;0.20;;;21.40;99.90;;;;;;5011950;28;20440;-72
2022/06/16 05:37:55;;;;;;;0.80;0.30;;;21.40;99.90;;;;;;5011075;28;20858;-73
2022/06/16 05:40:24;;;;;;;0.70;0.20;;;;;;;;;;5012702;28;20472;-72
2022/06/16 05:42:52;;;;;;;0.70;0.20;;;21.40;99.90;;;;;;5022044;28;20485;-73
2022/06/16 05:45:20;;;;;;;0.67;0.20;;;21.50;99.90;;;;;;5014033;28;20467;-72
2022/06/16 05:47:49;;;;;;;0.70;0.10;;;21.50;99.90;;;;;;5016156;28;20459;-72
2022/06/16 05:50:22;;;;;;;0.70;0.10;;;21.50;99.90;;;;;;5014335;28;20440;-73
2022/06/16 05:52:49;;;;;;;0.70;0.20;;;21.60;99.90;;;;;;5013405;28;20460;-72
2022/06/16 05:55:19;;;;;;;0.63;0.10;;;21.60;99.90;;;;;;5012642;28;20437;-72
2022/06/16 05:57:49;;;;;;;0.70;0.10;;;21.60;99.90;;;;;;5012023;28;20444;-73
2022/06/16 06:00:17;;;;;;;0.70;0.20;;;21.70;99.90;;;;;;5012462;28;20444;-75
2022/06/16 06:02:45;;;;;;;0.80;0.50;;;21.70;99.90;;;;;;5013347;28;20556;-73
2022/06/16 06:05:13;;;;;;;0.70;0.10;;;21.80;99.90;;;;;;5012605;28;20467;-71
2022/06/16 06:18:44;;;;;;;0.70;0.20;;;21.70;99.90;;;;;;5025555;28;20990;-72
2022/06/16 06:21:12;;;;;;;0.70;0.20;;;21.70;99.90;;;;;;5019285;28;20677;-73
2022/06/16 06:23:41;;;;;;;0.70;0.30;;;21.70;99.90;;;;;;5037086;28;20485;-73
2022/06/16 06:26:11;;;;;;;0.80;0.20;;;;;;;;;;5036807;28;20849;-71
2022/06/16 06:28:41;;;;;;;0.70;0.27;;;21.60;99.90;;;;;;5019717;28;20444;-72
2022/06/16 06:31:09;;;;;;;0.70;0.40;;;21.60;99.90;;;;;;5021907;28;20464;-73
2022/06/16 06:33:36;;;;;;;0.80;0.30;;;21.60;99.90;;;;;;5033827;28;20452;-73
2022/06/16 06:36:05;;;;;;;0.70;0.10;;;21.60;99.90;;;;;;5018515;28;21000;-72
2022/06/16 06:38:34;;;;;;;0.70;0.20;;;21.60;99.90;;;;;;5019180;28;20458;-72
2022/06/16 06:41:06;;;;;;;0.70;0.10;;;21.60;99.90;;;;;;5018898;28;20468;-72
2022/06/16 06:43:34;;;;;;;0.70;0.40;;;21.70;99.90;;;;;;5016709;28;20478;-72
2022/06/16 06:46:02;;;;;;;0.80;0.43;;;21.60;99.90;;;;;;5016774;28;20451;-71
2022/06/16 06:48:30;;;;;;;0.60;0.10;;;21.60;99.90;;;;;;5017104;28;20921;-73
2022/06/16 06:50:58;;;;;;;0.70;0.20;;;21.70;99.90;;;;;;5016443;28;20491;-72
2022/06/16 06:53:26;;;;;;;1.07;0.97;;;21.80;99.90;;;;;;5035205;28;20443;-71
2022/06/16 06:55:54;;;;;;;0.70;0.20;;;21.80;99.90;;;;;;5035532;28;20945;-72
2022/06/16 06:58:24;;;;;;;0.70;0.43;;;22.30;99.90;;;;;;5007602;28;20530;-73
2022/06/16 07:00:54;;;;;;;0.70;0.20;;;22.10;99.90;;;;;;5017055;28;20467;-72
2022/06/16 07:03:22;;;;;;;0.70;0.20;;;22.10;99.90;;;;;;5035389;28;20549;-72
2022/06/16 07:05:50;;;;;;;0.70;0.20;;;22.10;99.90;;;;;;5036185;28;20460;-73
2022/06/16 07:08:19;;;;;;;0.70;0.20;;;22.10;99.90;;;;;;5035322;28;20450;-72
2022/06/16 07:10:49;;;;;;;1.10;0.50;;;22.10;99.90;;;;;;5035520;28;20467;-72
2022/06/16 07:13:17;;;;;;;0.70;0.40;;;22.10;99.90;;;;;;5017526;28;20849;-73
2022/06/16 07:15:48;;;;;;;0.70;0.10;;;22.00;99.90;;;;;;5015874;28;20462;-72
2022/06/16 07:18:16;;;;;;;0.80;0.43;;;22.10;99.90;;;;;;5016175;28;20471;-73
2022/06/16 07:20:47;;;;;;;0.70;0.10;;;22.30;99.90;;;;;;5015239;28;20464;-73
2022/06/16 07:23:15;;;;;;;0.87;0.40;;;22.50;99.90;;;;;;5032706;28;20873;-72
2022/06/16 07:25:43;;;;;;;0.80;0.33;;;22.50;99.90;;;;;;5035070;28;20962;-72
2022/06/16 07:28:11;;;;;;;0.70;0.30;;;22.50;99.90;;;;;;5021490;28;20539;-72
2022/06/16 07:30:42;;;;;;;0.70;0.10;;;22.50;99.90;;;;;;5015524;28;20468;-72
2022/06/16 07:33:13;;;;;;;0.70;0.20;;;22.50;99.90;;;;;;5031799;28;20451;-72
2022/06/16 07:35:43;;;;;;;0.70;0.10;;;22.70;99.90;;;;;;5034948;28;20527;-72
2022/06/16 07:38:12;;;;;;;0.70;0.20;;;22.70;99.90;;;;;;5035713;28;20451;-73
2022/06/16 07:40:40;;;;;;;0.70;0.10;;;22.80;99.90;;;;;;5026484;28;20556;-72
2022/06/16 07:43:09;;;;;;;0.70;0.10;;;22.80;99.90;;;;;;5035257;28;20562;-72
2022/06/16 07:45:38;;;;;;;0.70;0.10;;;22.90;99.90;;;;;;5036604;28;20447;-71
2022/06/16 07:48:08;;;;;;;0.97;0.70;;;20.90;99.90;;;;;;5037895;28;20459;-73
2022/06/16 07:50:37;;;;;;;0.70;0.30;;;23.00;99.90;;;;;;5039977;28;20554;-72
2022/06/16 07:53:07;;;;;;;0.70;0.20;;;23.00;99.90;;;;;;5018411;28;20488;-72
2022/06/16 07:55:35;;;;;;;0.70;0.10;;;23.00;99.90;;;;;;5015064;28;20546;-72
2022/06/16 07:58:03;;;;;;;0.70;0.10;;;23.00;99.90;;;;;;5018004;28;20467;-73
2022/06/16 08:00:35;;;;;;;1.10;0.53;;;23.00;99.90;;;;;;5017793;28;20559;-72
2022/06/16 08:03:03;;;;;;;0.70;0.20;;;23.00;99.90;;;;;;5016411;28;20854;-73
2022/06/16 08:05:32;;;;;;;0.70;0.40;;;23.00;99.90;;;;;;5016960;28;20897;-72
2022/06/16 08:08:02;;;;;;;0.70;0.20;;;23.00;99.90;;;;;;5017147;28;20448;-73
2022/06/16 08:10:33;;;;;;;1.20;0.63;;;23.10;99.90;;;;;;5016962;28;20468;-72
2022/06/16 08:13:01;;;;;;;1.37;1.20;;;23.10;99.90;;;;;;5021792;28;20470;-73
2022/06/16 08:15:29;;;;;;;0.80;0.50;;;23.10;99.90;;;;;;5013902;28;20451;-73
2022/06/16 08:17:58;;;;;;;0.70;0.10;;;23.10;99.90;;;;;;5013238;28;20452;-72
2022/06/16 08:20:26;;;;;;;0.70;0.17;;;23.10;99.90;;;;;;5008958;28;20530;-77
2022/06/16 08:23:01;;;;;;;0.70;0.10;;;23.20;99.90;;;;;;5016791;28;20463;-73
2022/06/16 08:25:29;;;;;;;0.90;0.57;;;23.20;99.90;;;;;;5006566;28;20481;-73
2022/06/16 08:27:58;;;;;;;0.80;0.40;;;23.40;99.90;;;;;;5005084;28;20932;-73
2022/06/16 08:30:26;;;;;;;1.37;0.33;;;23.50;99.90;;;;;;5014063;28;20527;-74
2022/06/16 08:32:54;;;;;;;0.70;0.20;;;23.60;99.90;;;;;;5024743;28;20459;-75
2022/06/16 08:35:25;;;;;;;1.00;0.70;;;23.60;99.90;;;;;;5014168;28;20440;-74
2022/06/16 08:37:53;;;;;;;0.70;0.20;;;23.60;99.90;;;;;;5014022;28;20452;-74
2022/06/16 08:40:23;;;;;;;0.70;0.20;;;23.60;99.90;;;;;;5022267;28;20813;-74
2022/06/16 08:43:01;;;;;;;0.70;0.20;;;23.60;99.90;;;;;;5010840;28;20460;-73
2022/06/16 08:45:34;;;;;;;0.80;0.30;;;23.70;99.90;;;;;;5013747;28;20480;-74
2022/06/16 08:48:19;;;;;;;1.10;0.60;;;23.70;99.90;;;;;;5012101;28;20478;-72
2022/06/16 08:50:52;;;;;;;0.90;0.40;;;23.80;99.90;;;;;;5013701;28;20567;-73
2022/06/16 08:53:37;;;;;;;0.80;0.30;;;23.80;99.90;;;;;;5020899;28;20464;-73
2022/06/16 08:56:13;;;;;;;0.70;0.30;;;23.80;99.90;;;;;;5013627;28;20943;-72
2022/06/16 08:58:48;;;;;;;2.00;1.90;;;23.80;99.90;;;;;;5007585;28;20460;-73
2022/06/16 09:01:30;;;;;;;0.80;0.20;;;23.90;99.90;;;;;;5024477;28;20478;-76
2022/06/16 09:04:03;;;;;;;0.70;0.17;;;23.90;99.90;;;;;;5034692;28;20534;-76
2022/06/16 09:06:38;;;;;;;0.70;0.10;;;24.00;99.90;;;;;;5033276;28;20505;-74
2022/06/16 09:10:14;;;;;;;0.70;0.10;;;24.00;99.90;;;;;;5033427;28;20439;-73
2022/06/16 09:12:23;;;;;;;0.70;0.20;;;24.00;99.90;;;;;;5011539;28;20483;-71
2022/06/16 09:15:13;;;;;;;0.70;0.20;;;24.00;99.90;;;;;;5013158;28;20520;-72
2022/06/16 09:17:55;;;;;;;0.70;0.10;;;24.00;99.90;;;;;;5006414;28;20456;-73
2022/06/16 09:20:35;;;;;;;0.90;0.20;;;24.00;99.90;;;;;;5013909;28;20471;-73
2022/06/16 09:23:35;;;;;;;0.70;0.10;;;24.00;99.90;;;;;;5014980;28;21125;-73
2022/06/16 09:26:17;;;;;;;0.70;0.10;;;24.10;99.90;;;;;;4993300;28;20481;-73
2022/06/16 09:28:53;;;;;;;0.70;0.20;;;24.10;99.90;;;;;;5010074;28;20467;-74
2022/06/16 09:31:27;;;;;;;0.70;0.10;;;24.20;99.90;;;;;;5013627;28;20478;-74
2022/06/16 09:34:01;;;;;;;0.70;0.20;;;24.20;99.90;;;;;;5013468;28;20809;-73
2022/06/16 09:36:33;;;;;;;0.70;0.20;;;24.30;99.90;;;;;;5012697;28;20455;-73
2022/06/16 09:39:08;;;;;;;0.70;0.20;;;24.30;99.90;;;;;;5014044;28;20452;-73
2022/06/16 09:44:54;;;;;;;0.70;0.20;;;24.50;99.90;;;;;;5032710;28;20487;-74
2022/06/16 09:47:28;;;;;;;0.70;0.10;;;24.50;99.90;;;;;;5032200;28;20443;-75
2022/06/16 09:50:02;;;;;;;4.10;1.80;;;24.60;99.90;;;;;;5029947;28;20458;-75
2022/06/16 09:52:38;;;;;;;0.80;0.20;;;24.60;99.90;;;;;;5015436;28;20559;-76
2022/06/16 09:55:11;;;;;;;0.70;0.30;;;24.70;99.90;;;;;;5012720;28;20452;-73
2022/06/16 09:57:44;;;;;;;0.80;0.40;;;24.70;99.90;;;;;;5012912;28;20456;-73
2022/06/16 10:00:17;;;;;;;0.90;0.30;;;27.90;99.90;;;;;;5015456;28;20453;-74
2022/06/16 10:02:50;;;;;;;0.70;0.27;;;24.70;99.90;;;;;;5013394;28;20460;-74
2022/06/16 10:05:22;;;;;;;0.70;0.10;;;24.70;99.90;;;;;;5013018;28;20538;-73
2022/06/16 10:08:00;;;;;;;0.70;0.20;;;24.80;99.90;;;;;;5010325;28;20467;-73
2022/06/16 10:10:34;;;;;;;0.80;0.50;;;25.00;99.90;;;;;;5007804;28;20475;-72
2022/06/16 10:13:14;;;;;;;2.37;2.27;;;25.10;99.90;;;;;;5014469;28;20451;-73
2022/06/16 10:15:48;;;;;;;0.80;0.37;;;25.10;99.90;;;;;;5014032;28;20435;-74
2022/06/16 10:18:17;;;;;;;0.70;0.30;;;25.10;99.90;;;;;;5013619;28;20447;-73
2022/06/16 10:20:46;;;;;;;0.70;0.20;;;25.30;99.90;;;;;;5012928;28;20851;-73
2022/06/16 10:23:18;;;;;;;0.93;0.33;;;25.30;99.90;;;;;;5012825;28;20479;-72
2022/06/16 10:25:54;;;;;;;0.70;0.10;;;25.40;99.90;;;;;;5012387;28;20480;-72
2022/06/16 10:28:28;;;;;;;0.80;0.37;;;25.40;99.90;;;;;;5012567;28;20526;-73
2022/06/16 10:31:00;;;;;;;0.80;0.27;;;25.50;99.90;;;;;;5024455;28;20821;-73
2022/06/16 10:33:30;;;;;;;0.70;0.20;;;25.50;99.90;;;;;;5033571;28;20443;-73
2022/06/16 10:36:02;;;;;;;0.70;0.10;;;25.60;99.90;;;;;;5015407;28;20531;-72
2022/06/16 10:38:33;;;;;;;0.80;0.33;;;25.50;99.90;;;;;;5011991;28;20535;-75
2022/06/16 10:41:04;;;;;;;0.70;0.20;;;25.50;99.90;;;;;;5026364;28;20474;-75
2022/06/16 10:43:41;;;;;;;0.70;0.10;;;25.50;99.90;;;;;;5031861;28;20439;-76
2022/06/16 10:46:15;;;;;;;0.70;0.10;;;25.60;99.90;;;;;;5016547;28;20571;-75
2022/06/16 10:48:49;;;;;;;0.70;0.20;;;25.70;99.90;;;;;;5016036;28;20546;-72
2022/06/16 10:51:20;;;;;;;0.77;0.20;;;25.90;99.90;;;;;;5013181;28;20472;-74
2022/06/16 10:54:01;;;;;;;0.70;0.20;;;26.00;99.90;;;;;;5021639;23;20500;-73
2022/06/16 10:56:30;;;;;;;0.70;0.10;;;26.10;99.90;;;;;;5018338;28;20821;-77
2022/06/16 10:59:00;;;;;;;0.80;0.50;;;26.20;99.90;;;;;;5019463;28;20437;-75
2022/06/16 11:01:37;;;;;;;0.70;0.10;;;26.20;99.90;;;;;;5016461;28;20526;-74
2022/06/16 11:04:07;;;;;;;0.70;0.20;;;26.40;99.90;;;;;;5014272;28;20467;-74
2022/06/16 11:06:39;;;;;;;0.70;0.20;;;26.40;99.90;;;;;;5011923;28;20578;-74
2022/06/16 11:09:08;;;;;;;0.70;0.20;;;26.50;99.90;;;;;;5015907;28;20436;-73
2022/06/16 11:11:42;;;;;;;0.70;0.10;;;26.40;99.90;;;;;;5010619;28;20443;-76
2022/06/16 11:14:14;;;;;;;0.70;0.10;;;26.50;99.90;;;;;;5015148;28;20474;-74
2022/06/16 11:16:50;;;;;;;1.17;0.73;;;26.60;99.90;;;;;;5010616;28;20436;-78
2022/06/16 11:19:28;;;;;;;0.70;0.20;;;26.60;99.90;;;;;;5011914;28;20500;-73
2022/06/16 11:21:57;;;;;;;0.70;0.10;;;26.60;99.90;;;;;;5018274;28;20448;-72
2022/06/16 11:24:29;;;;;;;0.70;0.30;;;26.60;99.90;;;;;;5014311;28;20879;-75
2022/06/16 11:27:09;;;;;;;0.80;0.40;;;26.70;99.90;;;;;;5017942;28;20480;-74
2022/06/16 11:29:38;;;;;;;0.70;0.10;;;26.70;99.90;;;;;;5011390;28;20476;-76
2022/06/16 11:32:15;;;;;;;0.70;0.10;;;27.00;99.90;;;;;;5012477;28;20561;-75
2022/06/16 11:34:44;;;;;;;0.70;0.20;;;27.00;99.90;;;;;;5016441;28;20544;-75
2022/06/16 11:37:41;;;;;;;0.70;0.10;;;27.10;99.90;;;;;;5014096;28;20448;-75
2022/06/16 11:40:21;;;;;;;0.70;0.10;;;27.10;99.90;;;;;;5007095;28;20448;-76
2022/06/16 11:43:06;;;;;;;0.70;0.30;;;27.10;99.90;;;;;;5009157;28;20460;-75
2022/06/16 11:45:40;;;;;;;0.70;0.20;;;27.10;99.90;;;;;;5008072;28;20838;-75
2022/06/16 11:48:20;;;;;;;0.70;0.10;;;27.20;99.90;;;;;;5013114;28;20821;-76
2022/06/16 11:50:55;;;;;;;0.70;0.10;;;27.30;99.90;;;;;;5006334;28;20452;-76
2022/06/16 11:53:42;;;;;;;1.00;0.30;;;27.50;99.90;;;;;;5006370;28;20467;-75
2022/06/16 11:56:18;;;;;;;0.70;0.20;;;27.60;99.90;;;;;;5023115;28;20539;-74
2022/06/16 11:59:07;;;;;;;0.70;0.10;;;27.70;99.90;;;;;;5007750;28;20452;-74
2022/06/16 12:01:42;;;;;;;0.70;0.10;;;27.70;99.90;;;;;;5001300;28;20445;-74
2022/06/16 12:04:51;;;;;;;0.70;0.10;;;27.70;99.90;;;;;;5012897;28;20471;-74
2022/06/16 12:07:39;;;;;;;0.70;0.20;;;27.90;99.90;;;;;;5009118;28;20481;-75
2022/06/16 12:10:17;;;;;;;0.70;0.30;;;28.00;99.90;;;;;;5011881;28;20455;-75
2022/06/16 12:12:51;;;;;;;0.80;0.30;;;28.00;99.90;;;;;;5012860;28;20472;-73
2022/06/16 12:15:27;;;;;;;0.70;0.30;;;28.00;99.90;;;;;;5006064;28;20436;-74
2022/06/16 12:18:07;;;;;;;0.70;0.10;;;28.00;99.90;;;;;;5012224;28;20472;-75
2022/06/16 12:20:50;;;;;;;3.43;0.73;;;28.00;99.90;;;;;;5010553;28;20803;-74
2022/06/16 12:23:26;;;;;;;0.70;0.20;;;28.00;99.90;;;;;;5010754;28;20460;-77
2022/06/16 12:26:02;;;;;;;0.70;0.20;;;28.00;99.90;;;;;;5010094;28;20558;-73
2022/06/16 12:28:39;;;;;;;0.70;0.20;;;28.10;99.90;;;;;;5012653;28;21091;-76
2022/06/16 12:31:12;;;;;;;0.70;0.20;;;28.10;99.90;;;;;;5014265;28;20440;-74
2022/06/16 12:33:46;;;;;;;0.70;0.13;;;28.10;99.90;;;;;;5013199;28;20464;-75
2022/06/16 12:36:20;;;;;;;0.70;0.20;;;28.20;99.90;;;;;;5012267;28;20444;-75
2022/06/16 12:38:50;;;;;;;0.70;0.10;;;28.30;99.90;;;;;;5012277;28;20444;-75
2022/06/16 12:41:23;;;;;;;0.70;0.10;;;28.30;99.90;;;;;;5009632;28;20453;-73
2022/06/16 12:43:55;;;;;;;0.70;0.10;;;28.30;99.90;;;;;;5012872;28;20556;-74
2022/06/16 12:46:29;;;;;;;0.70;0.30;;;28.30;99.90;;;;;;4996316;28;20654;-74
2022/06/16 12:48:59;;;;;;;0.70;0.10;;;;;;;;;;5011983;28;20543;-74
2022/06/16 12:51:36;;;;;;;0.70;0.10;;;28.40;99.90;;;;;;5012469;28;20486;-74
2022/06/16 12:54:08;;;;;;;0.70;0.10;;;28.40;99.90;;;;;;5011879;28;20574;-74
2022/06/16 12:56:43;;;;;;;0.70;0.30;;;28.40;99.90;;;;;;5011707;28;20459;-74
2022/06/16 12:59:17;;;;;;;0.70;0.20;;;28.30;99.90;;;;;;5011612;28;21237;-75
2022/06/16 13:01:48;;;;;;;0.70;0.10;;;28.30;99.90;;;;;;5012174;28;20497;-75
2022/06/16 13:04:23;;;;;;;0.70;0.20;;;28.40;99.90;;;;;;5010452;28;21089;-74
2022/06/16 13:06:53;;;;;;;0.70;0.10;;;28.40;99.90;;;;;;5008128;28;20480;-77
2022/06/16 13:09:24;;;;;;;0.70;0.13;;;28.40;99.90;;;;;;5012242;28;21017;-75
2022/06/16 13:11:58;;;;;;;0.70;0.20;;;28.50;99.90;;;;;;5007204;28;20469;-75
2022/06/16 13:14:31;;;;;;;0.70;0.10;;;28.50;99.90;;;;;;5002481;28;21136;-76
2022/06/16 13:17:02;;;;;;;0.70;0.10;;;28.70;99.90;;;;;;5002835;28;20456;-75
2022/06/16 13:19:36;;;;;;;0.70;0.10;;;28.70;99.90;;;;;;5011859;28;20443;-77
2022/06/16 13:22:07;;;;;;;0.70;0.20;;;28.70;99.90;;;;;;5011749;28;20487;-76
2022/06/16 13:24:40;;;;;;;0.70;0.20;;;28.70;99.90;;;;;;5012287;28;20444;-75
2022/06/16 13:27:13;;;;;;;0.70;0.13;;;28.80;99.90;;;;;;5010904;28;20511;-75
2022/06/16 13:29:58;;;;;;;0.70;0.17;;;28.90;99.90;;;;;;5012173;28;20471;-75
2022/06/16 13:32:39;;;;;;;0.70;0.10;;;28.90;99.90;;;;;;4996948;28;20975;-75
2022/06/16 13:35:27;;;;;;;0.70;0.10;;;28.90;99.90;;;;;;5009079;28;20528;-76
2022/06/16 13:38:38;;;;;;;0.70;0.20;;;28.90;99.90;;;;;;5011067;28;20452;-73